Time,TemperatureF,DewpointF,PressureIn,WindDirection,WindDirectionDegrees,WindSpeedMPH,WindSpeedGustMPH,Humidity,HourlyPrecipIn,Conditions,Clouds,dailyrainin,SoftwareType,DateUTC
2013-03-13 00:03:00,60.0,-99.9,29.93,West,274,6.0,11.0,-999,-99.99,,,-99.99,,2013-03-13 04:03:00,
2013-03-13 00:13:00,60.0,-99.9,29.93,WNW,283,6.0,9.0,-999,-99.99,,,-99.99,,2013-03-13 04:13:00,
2013-03-13 00:23:00,60.0,-99.9,29.93,West,276,7.0,12.0,-999,-99.99,,,-99.99,,2013-03-13 04:23:00,
2013-03-13 00:32:00,59.0,-99.9,29.94,West,281,6.0,10.0,-999,-99.99,,,-99.99,,2013-03-13 04:32:00,
2013-03-13 00:43:00,59.0,-99.9,29.94,WNW,287,6.0,9.0,-999,-99.99,,,-99.99,,2013-03-13 04:43:00,
2013-03-13 00:53:00,59.0,-99.9,29.93,WNW,292,8.0,12.0,-999,-99.99,,,-99.99,,2013-03-13 04:53:00,
2013-03-13 01:03:00,58.0,-99.9,29.94,WNW,289,8.0,12.0,-999,-99.99,,,-99.99,,2013-03-13 05:03:00,
2013-03-13 01:13:00,58.0,-99.9,29.94,WNW,291,8.0,14.0,-999,-99.99,,,-99.99,,2013-03-13 05:13:00,
2013-03-13 01:22:00,58.0,-99.9,29.94,WNW,287,9.0,14.0,-999,-99.99,,,-99.99,,2013-03-13 05:22:00,
2013-03-13 01:33:00,58.0,-99.9,29.94,WNW,290,9.0,14.0,-999,-99.99,,,-99.99,,2013-03-13 05:33:00,
2013-03-13 01:43:00,57.0,-99.9,29.95,WNW,288,10.0,15.0,-999,-99.99,,,-99.99,,2013-03-13 05:43:00,
2013-03-13 01:53:00,57.0,-99.9,29.95,WNW,289,6.0,14.0,-999,-99.99,,,-99.99,,2013-03-13 05:53:00,
2013-03-13 02:02:00,57.0,-99.9,29.95,WNW,296,8.0,14.0,-999,-99.99,,,-99.99,,2013-03-13 06:02:00,
2013-03-13 02:13:00,56.0,-99.9,29.95,WNW,297,7.0,13.0,-999,-99.99,,,-99.99,,2013-03-13 06:13:00,
2013-03-13 02:23:00,56.0,-99.9,29.95,NW,304,6.0,13.0,-999,-99.99,,,-99.99,,2013-03-13 06:23:00,
2013-03-13 02:33:00,55.0,-99.9,29.96,NW,307,7.0,13.0,-999,-99.99,,,-99.99,,2013-03-13 06:33:00,
2013-03-13 02:43:00,55.0,-99.9,29.96,WNW,303,6.0,13.0,-999,-99.99,,,-99.99,,2013-03-13 06:43:00,
2013-03-13 02:53:00,55.0,-99.9,29.96,WNW,302,8.0,14.0,-999,-99.99,,,-99.99,,2013-03-13 06:53:00,
2013-03-13 03:03:00,55.0,-99.9,29.96,WNW,291,8.0,15.0,-999,-99.99,,,-99.99,,2013-03-13 07:03:00,
2013-03-13 03:12:00,54.0,-99.9,29.96,NW,304,7.0,15.0,-999,-99.99,,,-99.99,,2013-03-13 07:12:00,
2013-03-13 03:23:00,54.0,-99.9,29.96,NW,305,6.0,12.0,-999,-99.99,,,-99.99,,2013-03-13 07:23:00,
2013-03-13 03:33:00,53.0,-99.9,29.97,NW,311,8.0,13.0,-999,-99.99,,,-99.99,,2013-03-13 07:33:00,
2013-03-13 03:43:00,53.0,-99.9,29.97,NW,307,7.0,12.0,-999,-99.99,,,-99.99,,2013-03-13 07:43:00,
2013-03-13 03:53:00,53.0,-99.9,29.97,NW,308,7.0,12.0,-999,-99.99,,,-99.99,,2013-03-13 07:53:00,
2013-03-13 04:03:00,53.0,-99.9,29.97,NW,314,7.0,12.0,-999,-99.99,,,-99.99,,2013-03-13 08:03:00,
2013-03-13 04:12:00,52.0,-99.9,29.97,NW,312,6.0,10.0,-999,-99.99,,,-99.99,,2013-03-13 08:12:00,
2013-03-13 04:23:00,52.0,-99.9,29.97,NW,315,7.0,11.0,-999,-99.99,,,-99.99,,2013-03-13 08:23:00,
2013-03-13 04:33:00,52.0,-99.9,29.97,NW,313,7.0,10.0,-999,-99.99,,,-99.99,,2013-03-13 08:33:00,
2013-03-13 04:43:00,52.0,-99.9,29.97,NW,318,9.0,14.0,-999,-99.99,,,-99.99,,2013-03-13 08:43:00,
2013-03-13 04:54:00,52.0,-99.9,29.98,NW,319,8.0,13.0,-999,-99.99,,,-99.99,,2013-03-13 08:54:00,
2013-03-13 05:02:00,52.0,-99.9,29.98,NW,322,9.0,12.0,-999,-99.99,,,-99.99,,2013-03-13 09:02:00,
2013-03-13 05:13:00,52.0,-99.9,29.99,NNW,327,10.0,13.0,-999,-99.99,,,-99.99,,2013-03-13 09:13:00,
2013-03-13 05:23:00,52.0,-99.9,29.99,NW,326,9.0,12.0,-999,-99.99,,,-99.99,,2013-03-13 09:23:00,
2013-03-13 05:32:00,52.0,-99.9,29.99,NNW,334,8.0,13.0,-999,-99.99,,,-99.99,,2013-03-13 09:32:00,
2013-03-13 05:42:00,52.0,-99.9,30.00,NNW,333,9.0,13.0,-999,-99.99,,,-99.99,,2013-03-13 09:42:00,
2013-03-13 05:52:00,51.0,-99.9,30.00,NNW,330,8.0,11.0,-999,-99.99,,,-99.99,,2013-03-13 09:52:00,
2013-03-13 06:02:00,51.0,-99.9,30.01,NW,324,7.0,10.0,-999,-99.99,,,-99.99,,2013-03-13 10:02:00,
2013-03-13 06:12:00,51.0,-99.9,30.01,NNW,328,7.0,10.0,-999,-99.99,,,-99.99,,2013-03-13 10:12:00,
2013-03-13 06:22:00,51.0,-99.9,30.01,NW,325,6.0,10.0,-999,-99.99,,,-99.99,,2013-03-13 10:22:00,
2013-03-13 06:32:00,50.0,-99.9,30.03,NW,320,7.0,9.0,-999,-99.99,,,-99.99,,2013-03-13 10:32:00,
2013-03-13 06:42:00,50.0,-99.9,30.03,NW,320,7.0,10.0,-999,-99.99,,,-99.99,,2013-03-13 10:42:00,
2013-03-13 06:52:00,50.0,-99.9,30.03,NW,309,5.0,8.0,-999,-99.99,,,-99.99,,2013-03-13 10:52:00,
2013-03-13 07:02:00,50.0,-99.9,30.04,NW,315,5.0,9.0,-999,-99.99,,,-99.99,,2013-03-13 11:02:00,
2013-03-13 07:13:00,49.0,-99.9,30.04,NW,316,5.0,8.0,-999,-99.99,,,-99.99,,2013-03-13 11:13:00,
2013-03-13 07:23:00,49.0,-99.9,30.05,NW,309,4.0,7.0,-999,-99.99,,,-99.99,,2013-03-13 11:23:00,
2013-03-13 07:32:00,49.0,-99.9,30.06,NW,313,5.0,10.0,-999,-99.99,,,-99.99,,2013-03-13 11:32:00,
2013-03-13 07:42:00,49.0,-99.9,30.06,NW,319,4.0,7.0,-999,-99.99,,,-99.99,,2013-03-13 11:42:00,
2013-03-13 07:53:00,49.0,-99.9,30.06,NW,310,6.0,9.0,-999,-99.99,,,-99.99,,2013-03-13 11:53:00,
2013-03-13 08:02:00,49.0,-99.9,30.07,NW,314,6.0,9.0,-999,-99.99,,,-99.99,,2013-03-13 12:02:00,
2013-03-13 08:12:00,49.0,-99.9,30.07,NW,314,6.0,9.0,-999,-99.99,,,-99.99,,2013-03-13 12:12:00,
2013-03-13 08:22:00,49.0,-99.9,30.08,NW,318,6.0,9.0,-999,-99.99,,,-99.99,,2013-03-13 12:22:00,
2013-03-13 08:33:00,50.0,-99.9,30.08,NW,314,6.0,9.0,-999,-99.99,,,-99.99,,2013-03-13 12:33:00,
2013-03-13 08:42:00,50.0,-99.9,30.09,NW,312,4.0,9.0,-999,-99.99,,,-99.99,,2013-03-13 12:42:00,
2013-03-13 08:53:00,50.0,-99.9,30.09,NW,318,5.0,8.0,-999,-99.99,,,-99.99,,2013-03-13 12:53:00,
2013-03-13 09:02:00,52.0,-99.9,30.09,NW,317,6.0,11.0,-999,-99.99,,,-99.99,,2013-03-13 13:02:00,
2013-03-13 09:12:00,52.0,-99.9,30.10,NW,315,6.0,11.0,-999,-99.99,,,-99.99,,2013-03-13 13:12:00,
2013-03-13 09:22:00,53.0,-99.9,30.10,NW,318,6.0,11.0,-999,-99.99,,,-99.99,,2013-03-13 13:22:00,
2013-03-13 09:33:00,53.0,-99.9,30.10,NW,316,8.0,12.0,-999,-99.99,,,-99.99,,2013-03-13 13:33:00,
2013-03-13 09:43:00,54.0,-99.9,30.11,NNW,327,10.0,13.0,-999,-99.99,,,-99.99,,2013-03-13 13:43:00,
2013-03-13 09:53:00,54.0,-99.9,30.11,NNW,335,7.0,11.0,-999,-99.99,,,-99.99,,2013-03-13 13:53:00,
2013-03-13 10:03:00,55.0,-99.9,30.11,NNW,340,7.0,12.0,-999,-99.99,,,-99.99,,2013-03-13 14:03:00,
2013-03-13 10:12:00,55.0,-99.9,30.11,NNW,344,6.0,14.0,-999,-99.99,,,-99.99,,2013-03-13 14:12:00,
2013-03-13 10:22:00,54.0,-99.9,30.11,North,3,7.0,11.0,-999,-99.99,,,-99.99,,2013-03-13 14:22:00,
2013-03-13 10:34:00,54.0,-99.9,30.11,North,359,6.0,11.0,-999,-99.99,,,-99.99,,2013-03-13 14:34:00,
2013-03-13 10:43:00,54.0,-99.9,30.11,North,6,8.0,11.0,-999,-99.99,,,-99.99,,2013-03-13 14:43:00,
2013-03-13 10:53:00,54.0,-99.9,30.11,North,5,7.0,10.0,-999,-99.99,,,-99.99,,2013-03-13 14:53:00,
2013-03-13 11:03:00,56.0,-99.9,30.11,NNW,338,5.0,12.0,-999,-99.99,,,-99.99,,2013-03-13 15:03:00,
2013-03-13 11:12:00,55.0,-99.9,30.11,North,354,6.0,12.0,-999,-99.99,,,-99.99,,2013-03-13 15:12:00,
2013-03-13 11:22:00,56.0,-99.9,30.11,North,1,6.0,11.0,-999,-99.99,,,-99.99,,2013-03-13 15:22:00,
2013-03-13 11:33:00,55.0,-99.9,30.11,North,7,9.0,11.0,-999,-99.99,,,-99.99,,2013-03-13 15:33:00,
2013-03-13 11:43:00,57.0,-99.9,30.11,North,4,6.0,12.0,-999,-99.99,,,-99.99,,2013-03-13 15:43:00,
2013-03-13 11:53:00,56.0,-99.9,30.11,North,1,5.0,10.0,-999,-99.99,,,-99.99,,2013-03-13 15:53:00,
2013-03-13 12:03:00,59.0,-99.9,30.11,NW,316,9.0,14.0,-999,-99.99,,,-99.99,,2013-03-13 16:03:00,
2013-03-13 12:13:00,60.0,-99.9,30.11,NW,309,6.0,10.0,-999,-99.99,,,-99.99,,2013-03-13 16:13:00,
2013-03-13 12:22:00,59.0,-99.9,30.11,WNW,296,7.0,12.0,-999,-99.99,,,-99.99,,2013-03-13 16:22:00,
2013-03-13 12:33:00,60.0,-99.9,30.11,NW,310,9.0,15.0,-999,-99.99,,,-99.99,,2013-03-13 16:33:00,
2013-03-13 12:42:00,61.0,-99.9,30.10,NW,309,6.0,12.0,-999,-99.99,,,-99.99,,2013-03-13 16:42:00,
2013-03-13 12:52:00,61.0,-99.9,30.10,WNW,288,10.0,16.0,-999,-99.99,,,-99.99,,2013-03-13 16:52:00,
2013-03-13 13:03:00,61.0,-99.9,30.09,WNW,302,9.0,15.0,-999,-99.99,,,-99.99,,2013-03-13 17:03:00,
2013-03-13 13:12:00,62.0,-99.9,30.09,NW,317,11.0,16.0,-999,-99.99,,,-99.99,,2013-03-13 17:12:00,
2013-03-13 13:23:00,61.0,-99.9,30.09,NW,313,9.0,18.0,-999,-99.99,,,-99.99,,2013-03-13 17:23:00,
2013-03-13 13:33:00,62.0,-99.9,30.08,NW,304,10.0,17.0,-999,-99.99,,,-99.99,,2013-03-13 17:33:00,
2013-03-13 13:43:00,64.0,-99.9,30.07,NW,322,10.0,19.0,-999,-99.99,,,-99.99,,2013-03-13 17:43:00,
2013-03-13 13:53:00,62.0,-99.9,30.06,West,266,10.0,18.0,-999,-99.99,,,-99.99,,2013-03-13 17:53:00,
2013-03-13 14:03:00,62.0,-99.9,30.06,West,274,13.0,20.0,-999,-99.99,,,-99.99,,2013-03-13 18:03:00,
2013-03-13 14:13:00,62.0,-99.9,30.05,West,279,11.0,18.0,-999,-99.99,,,-99.99,,2013-03-13 18:13:00,
2013-03-13 14:22:00,63.0,-99.9,30.05,WNW,282,9.0,17.0,-999,-99.99,,,-99.99,,2013-03-13 18:22:00,
2013-03-13 14:33:00,63.0,-99.9,30.04,WSW,257,11.0,19.0,-999,-99.99,,,-99.99,,2013-03-13 18:33:00,
2013-03-13 14:43:00,63.0,-99.9,30.03,WNW,301,4.0,19.0,-999,-99.99,,,-99.99,,2013-03-13 18:43:00,
2013-03-13 14:52:00,63.0,-99.9,30.02,NW,308,11.0,18.0,-999,-99.99,,,-99.99,,2013-03-13 18:52:00,
2013-03-13 15:03:00,64.0,-99.9,30.01,WNW,290,9.0,16.0,-999,-99.99,,,-99.99,,2013-03-13 19:03:00,
2013-03-13 15:12:00,64.0,-99.9,30.01,West,280,11.0,18.0,-999,-99.99,,,-99.99,,2013-03-13 19:12:00,
2013-03-13 15:22:00,64.0,-99.9,30.01,WNW,296,12.0,20.0,-999,-99.99,,,-99.99,,2013-03-13 19:22:00,
2013-03-13 15:32:00,65.0,-99.9,30.01,West,276,11.0,17.0,-999,-99.99,,,-99.99,,2013-03-13 19:32:00,
2013-03-13 15:43:00,63.0,-99.9,30.00,WSW,253,12.0,17.0,-999,-99.99,,,-99.99,,2013-03-13 19:43:00,
2013-03-13 15:53:00,65.0,-99.9,29.99,NW,316,12.0,18.0,-999,-99.99,,,-99.99,,2013-03-13 19:53:00,
2013-03-13 16:02:00,64.0,-99.9,29.99,West,277,11.0,20.0,-999,-99.99,,,-99.99,,2013-03-13 20:02:00,
2013-03-13 16:13:00,64.0,-99.9,29.99,West,269,9.0,18.0,-999,-99.99,,,-99.99,,2013-03-13 20:13:00,
2013-03-13 16:23:00,65.0,-99.9,29.98,West,264,11.0,22.0,-999,-99.99,,,-99.99,,2013-03-13 20:23:00,
2013-03-13 16:33:00,65.0,-99.9,29.98,West,272,13.0,20.0,-999,-99.99,,,-99.99,,2013-03-13 20:33:00,
2013-03-13 16:42:00,65.0,-99.9,29.98,West,270,12.0,18.0,-999,-99.99,,,-99.99,,2013-03-13 20:42:00,
2013-03-13 16:52:00,64.0,-99.9,29.98,WSW,246,14.0,22.0,-999,-99.99,,,-99.99,,2013-03-13 20:52:00,
2013-03-13 17:02:00,65.0,-99.9,29.98,West,261,12.0,23.0,-999,-99.99,,,-99.99,,2013-03-13 21:02:00,
2013-03-13 17:12:00,65.0,-99.9,29.98,NW,306,13.0,20.0,-999,-99.99,,,-99.99,,2013-03-13 21:12:00,
2013-03-13 17:22:00,66.0,-99.9,29.98,West,269,6.0,20.0,-999,-99.99,,,-99.99,,2013-03-13 21:22:00,
2013-03-13 17:34:00,65.0,-99.9,29.98,WSW,257,13.0,18.0,-999,-99.99,,,-99.99,,2013-03-13 21:34:00,
2013-03-13 17:42:00,65.0,-99.9,29.98,West,274,12.0,20.0,-999,-99.99,,,-99.99,,2013-03-13 21:42:00,
2013-03-13 17:52:00,65.0,-99.9,29.98,West,274,10.0,19.0,-999,-99.99,,,-99.99,,2013-03-13 21:52:00,
2013-03-13 18:02:00,64.0,-99.9,29.98,WSW,256,16.0,21.0,-999,-99.99,,,-99.99,,2013-03-13 22:02:00,
2013-03-13 18:12:00,64.0,-99.9,29.98,West,276,14.0,20.0,-999,-99.99,,,-99.99,,2013-03-13 22:12:00,
2013-03-13 18:22:00,64.0,-99.9,29.98,West,272,11.0,22.0,-999,-99.99,,,-99.99,,2013-03-13 22:22:00,
2013-03-13 18:33:00,64.0,-99.9,29.98,West,273,12.0,23.0,-999,-99.99,,,-99.99,,2013-03-13 22:33:00,
2013-03-13 18:42:00,64.0,-99.9,29.98,West,275,20.0,26.0,-999,-99.99,,,-99.99,,2013-03-13 22:42:00,
2013-03-13 18:52:00,63.0,-99.9,29.99,West,269,15.0,22.0,-999,-99.99,,,-99.99,,2013-03-13 22:52:00,
2013-03-13 19:02:00,63.0,-99.9,29.99,West,269,15.0,22.0,-999,-99.99,,,-99.99,,2013-03-13 23:02:00,
2013-03-13 19:12:00,63.0,-99.9,29.99,WNW,293,12.0,18.0,-999,-99.99,,,-99.99,,2013-03-13 23:12:00,
2013-03-13 19:22:00,63.0,-99.9,29.99,West,277,11.0,19.0,-999,-99.99,,,-99.99,,2013-03-13 23:22:00,
2013-03-13 19:32:00,63.0,-99.9,30.00,West,280,9.0,18.0,-999,-99.99,,,-99.99,,2013-03-13 23:32:00,
2013-03-13 19:43:00,62.0,-99.9,30.00,West,266,12.0,20.0,-999,-99.99,,,-99.99,,2013-03-13 23:43:00,
2013-03-13 19:52:00,62.0,-99.9,30.00,WNW,289,7.0,17.0,-999,-99.99,,,-99.99,,2013-03-13 23:52:00,
2013-03-13 20:02:00,62.0,-99.9,30.01,West,279,7.0,12.0,-999,-99.99,,,-99.99,,2013-03-14 00:02:00,
2013-03-13 20:13:00,61.0,-99.9,30.01,WNW,285,7.0,16.0,-999,-99.99,,,-99.99,,2013-03-14 00:13:00,
2013-03-13 20:22:00,61.0,-99.9,30.01,WNW,293,9.0,14.0,-999,-99.99,,,-99.99,,2013-03-14 00:22:00,
2013-03-13 20:33:00,61.0,-99.9,30.01,West,275,5.0,10.0,-999,-99.99,,,-99.99,,2013-03-14 00:33:00,
2013-03-13 20:43:00,61.0,-99.9,30.02,West,268,6.0,9.0,-999,-99.99,,,-99.99,,2013-03-14 00:43:00,
2013-03-13 20:53:00,60.0,-99.9,30.02,West,274,6.0,10.0,-999,-99.99,,,-99.99,,2013-03-14 00:53:00,
2013-03-13 21:03:00,60.0,-99.9,30.02,West,277,5.0,8.0,-999,-99.99,,,-99.99,,2013-03-14 01:03:00,
2013-03-13 21:12:00,60.0,-99.9,30.03,West,276,7.0,11.0,-999,-99.99,,,-99.99,,2013-03-14 01:12:00,
2013-03-13 21:23:00,60.0,-99.9,30.03,West,272,9.0,12.0,-999,-99.99,,,-99.99,,2013-03-14 01:23:00,
2013-03-13 21:33:00,59.0,-99.9,30.04,WNW,292,5.0,9.0,-999,-99.99,,,-99.99,,2013-03-14 01:33:00,
2013-03-13 21:42:00,59.0,-99.9,30.04,WNW,291,7.0,13.0,-999,-99.99,,,-99.99,,2013-03-14 01:42:00,
2013-03-13 21:53:00,58.0,-99.9,30.05,WNW,292,6.0,14.0,-999,-99.99,,,-99.99,,2013-03-14 01:53:00,
2013-03-13 22:02:00,58.0,-99.9,30.05,NW,307,5.0,11.0,-999,-99.99,,,-99.99,,2013-03-14 02:02:00,
2013-03-13 22:12:00,57.0,-99.9,30.06,NW,307,4.0,12.0,-999,-99.99,,,-99.99,,2013-03-14 02:12:00,
2013-03-13 22:22:00,57.0,-99.9,30.06,NW,310,7.0,12.0,-999,-99.99,,,-99.99,,2013-03-14 02:22:00,
2013-03-13 22:33:00,56.0,-99.9,30.07,NW,314,8.0,12.0,-999,-99.99,,,-99.99,,2013-03-14 02:33:00,
2013-03-13 22:42:00,56.0,-99.9,30.07,NW,314,8.0,12.0,-999,-99.99,,,-99.99,,2013-03-14 02:42:00,
2013-03-13 22:52:00,56.0,-99.9,30.07,NW,314,8.0,12.0,-999,-99.99,,,-99.99,,2013-03-14 02:52:00,
2013-03-13 23:02:00,56.0,-99.9,30.08,WNW,295,6.0,13.0,-999,-99.99,,,-99.99,,2013-03-14 03:02:00,
2013-03-13 23:12:00,55.0,-99.9,30.08,WNW,302,5.0,11.0,-999,-99.99,,,-99.99,,2013-03-14 03:12:00,
2013-03-13 23:23:00,55.0,-99.9,30.08,NW,313,6.0,12.0,-999,-99.99,,,-99.99,,2013-03-14 03:23:00,
2013-03-13 23:33:00,55.0,-99.9,30.09,WNW,302,6.0,11.0,-999,-99.99,,,-99.99,,2013-03-14 03:33:00,
2013-03-13 23:42:00,55.0,-99.9,30.09,NW,308,7.0,15.0,-999,-99.99,,,-99.99,,2013-03-14 03:42:00,
2013-03-13 23:53:00,54.0,-99.9,30.09,NW,306,8.0,13.0,-999,-99.99,,,-99.99,,2013-03-14 03:53:00,